createdAt,value
2023-03-01T00:00:39.588Z,9.719352
2023-03-01T00:01:39.578Z,9.719422
2023-03-01T00:02:39.595Z,9.719276
2023-03-01T00:03:39.587Z,9.719027
2023-03-01T00:04:39.566Z,9.718809
2023-03-01T00:05:39.543Z,9.719129
2023-03-01T00:06:39.531Z,9.719102
2023-03-01T00:07:39.513Z,9.718915
2023-03-01T00:08:39.514Z,9.719209
2023-03-01T00:09:39.517Z,9.719126
2023-03-01T00:10:39.491Z,9.719158
2023-03-01T00:11:39.489Z,9.719290
2023-03-01T00:12:39.504Z,9.719425
2023-03-01T00:13:39.456Z,9.719121
2023-03-01T00:14:39.475Z,9.719155
2023-03-01T00:15:39.439Z,9.719172
2023-03-01T00:16:39.489Z,9.719232
2023-03-01T00:17:39.456Z,9.719175
2023-03-01T00:18:39.413Z,9.719182
2023-03-01T00:19:39.399Z,9.719263
2023-03-01T00:20:39.399Z,9.719333
2023-03-01T00:21:39.405Z,9.719400
2023-03-01T00:22:39.379Z,9.719382
2023-03-01T00:23:39.385Z,9.719372
2023-03-01T00:24:39.359Z,9.719280
2023-03-01T00:25:39.339Z,9.719115
2023-03-01T00:26:39.360Z,9.719023
2023-03-01T00:27:39.322Z,9.718943
2023-03-01T00:28:39.320Z,9.718884
2023-03-01T00:29:39.321Z,9.719184
2023-03-01T00:30:39.339Z,9.719040
2023-03-01T00:31:39.312Z,9.718917
2023-03-01T00:32:39.278Z,9.718818
2023-03-01T00:33:39.281Z,9.718694
2023-03-01T00:34:39.267Z,9.719139
2023-03-01T00:35:39.287Z,9.719201
2023-03-01T00:36:39.295Z,9.718923
2023-03-01T00:37:39.240Z,9.718968
2023-03-01T00:38:39.240Z,9.719055
2023-03-01T00:39:39.219Z,9.719122
2023-03-01T00:40:39.211Z,9.719070
2023-03-01T00:41:39.211Z,9.719172
2023-03-01T00:42:39.212Z,9.719163
2023-03-01T00:43:39.182Z,9.719090
2023-03-01T00:44:39.161Z,9.719143
2023-03-01T00:45:39.169Z,9.719164
2023-03-01T00:46:39.312Z,9.719152
2023-03-01T00:47:39.160Z,9.719225
2023-03-01T00:48:39.161Z,9.719171
2023-03-01T00:49:39.136Z,9.719271
2023-03-01T00:50:39.123Z,9.719240
2023-03-01T00:51:39.094Z,9.719270
2023-03-01T00:52:39.092Z,9.719224
2023-03-01T00:53:39.077Z,9.719293
2023-03-01T00:54:39.090Z,9.719158
2023-03-01T00:55:39.062Z,9.719138
2023-03-01T00:56:39.046Z,9.719142
2023-03-01T00:57:39.025Z,9.719090
2023-03-01T00:58:39.057Z,9.719081
2023-03-01T00:59:39.035Z,9.719022
2023-03-01T01:00:39.042Z,9.719046
2023-03-01T01:01:39.092Z,9.719142
2023-03-01T01:02:39.031Z,9.719218
2023-03-01T01:03:38.987Z,9.719330
2023-03-01T01:04:38.986Z,9.719337
2023-03-01T01:05:38.970Z,9.719272
2023-03-01T01:06:38.958Z,9.719403
2023-03-01T01:07:38.934Z,9.719355
2023-03-01T01:08:38.945Z,9.719340
2023-03-01T01:09:38.947Z,9.719582
2023-03-01T01:11:10.808Z,9.719826
2023-03-01T01:11:38.898Z,9.719294
2023-03-01T01:12:38.908Z,9.719236
2023-03-01T01:13:38.881Z,9.719187
2023-03-01T01:14:38.867Z,9.719622
2023-03-01T01:15:38.891Z,9.719452
2023-03-01T01:16:38.867Z,9.719347
2023-03-01T01:17:38.843Z,9.719357
2023-03-01T01:18:38.838Z,9.719234
2023-03-01T01:19:38.825Z,9.719254
2023-03-01T01:20:38.836Z,9.719362
2023-03-01T01:21:38.813Z,9.719472
2023-03-01T01:22:38.794Z,9.719369
2023-03-01T01:23:38.824Z,9.719474
2023-03-01T01:24:38.777Z,9.719571
2023-03-01T01:25:38.765Z,9.720038
2023-03-01T01:26:38.764Z,9.719900
2023-03-01T01:27:38.751Z,9.719596
2023-03-01T01:28:38.744Z,9.719619
2023-03-01T01:29:38.731Z,9.719751
2023-03-01T01:30:38.712Z,9.720209
2023-03-01T01:31:38.728Z,9.719924
2023-03-01T01:32:38.691Z,9.720363
2023-03-01T01:33:38.698Z,9.718868
2023-03-01T01:34:38.679Z,9.719522
2023-03-01T01:35:38.685Z,9.719683
2023-03-01T01:36:38.683Z,9.719872
2023-03-01T01:37:38.654Z,9.720736
2023-03-01T01:38:38.646Z,9.720363
2023-03-01T01:39:38.644Z,9.721004
2023-03-01T01:40:38.623Z,9.721081
2023-03-01T01:41:38.616Z,9.721297
2023-03-01T01:42:38.600Z,9.721033
2023-03-01T01:43:38.592Z,9.721049
2023-03-01T01:44:38.576Z,9.720295
2023-03-01T01:45:38.578Z,9.720295
2023-03-01T01:46:38.650Z,9.720295
2023-03-01T01:47:38.555Z,9.720295
2023-03-01T01:48:38.538Z,9.719508
2023-03-01T01:49:38.531Z,9.719398
2023-03-01T01:50:38.533Z,9.719312
2023-03-01T01:51:38.520Z,9.719102
2023-03-01T01:52:38.529Z,9.719251
2023-03-01T01:53:38.497Z,9.719189
2023-03-01T01:54:38.486Z,9.719293
2023-03-01T01:55:38.482Z,9.719075
2023-03-01T01:56:38.485Z,9.719101
2023-03-01T01:57:38.460Z,9.719063
2023-03-01T01:58:38.450Z,9.718973
2023-03-01T01:59:38.436Z,9.718832
2023-03-01T02:00:38.455Z,9.718978
2023-03-01T02:01:38.418Z,9.719019
2023-03-01T02:02:38.613Z,9.718908
2023-03-01T02:03:38.676Z,9.718825
2023-03-01T02:04:38.396Z,9.718739
2023-03-01T02:05:38.393Z,9.718860
2023-03-01T02:06:38.367Z,9.718776
2023-03-01T02:07:39.371Z,9.718698
2023-03-01T02:08:38.348Z,9.718772
2023-03-01T02:09:38.345Z,9.719011
2023-03-01T02:10:38.356Z,9.719046
2023-03-01T02:11:38.322Z,9.719017
2023-03-01T02:12:38.316Z,9.719032
2023-03-01T02:13:38.315Z,9.718978
2023-03-01T02:14:38.296Z,9.719047
2023-03-01T02:15:38.309Z,9.718947
2023-03-01T02:16:38.445Z,9.719062
2023-03-01T02:17:38.261Z,9.719139
2023-03-01T02:18:38.255Z,9.719166
2023-03-01T02:19:38.236Z,9.719172
2023-03-01T02:20:38.252Z,9.719097
2023-03-01T02:21:38.227Z,9.719088
2023-03-01T02:22:38.265Z,9.719126
2023-03-01T02:23:38.204Z,9.719122
2023-03-01T02:24:38.194Z,9.719262
2023-03-01T02:25:38.214Z,9.719375
2023-03-01T02:26:38.170Z,9.719370
2023-03-01T02:27:38.214Z,9.719291
2023-03-01T02:28:38.166Z,9.719248
2023-03-01T02:29:38.156Z,9.719212
2023-03-01T02:30:38.148Z,9.719236
2023-03-01T02:31:38.211Z,9.719230
2023-03-01T02:32:38.143Z,9.719250
2023-03-01T02:33:38.133Z,9.719255
2023-03-01T02:34:38.100Z,9.719209
2023-03-01T02:35:38.132Z,9.719127
2023-03-01T02:36:38.093Z,9.719067
2023-03-01T02:37:38.074Z,9.719108
2023-03-01T02:38:38.083Z,9.719131
2023-03-01T02:39:38.050Z,9.719182
2023-03-01T02:40:38.043Z,9.719151
2023-03-01T02:41:38.037Z,9.719229
2023-03-01T02:42:38.025Z,9.719165
2023-03-01T02:43:38.039Z,9.719167
2023-03-01T02:44:38.021Z,9.719281
2023-03-01T02:45:38.023Z,9.719327
2023-03-01T02:46:38.012Z,9.719342
2023-03-01T02:47:37.977Z,9.719290
2023-03-01T02:48:37.966Z,9.719193
2023-03-01T02:49:37.957Z,9.719324
2023-03-01T02:50:37.957Z,9.719327
2023-03-01T02:51:38.938Z,9.719359
2023-03-01T02:52:37.949Z,9.719341
2023-03-01T02:53:37.929Z,9.719369
2023-03-01T02:54:37.924Z,9.719385
2023-03-01T02:55:37.920Z,9.719331
2023-03-01T02:56:37.901Z,9.719210
2023-03-01T02:57:37.902Z,9.718939
2023-03-01T02:58:37.905Z,9.719102
2023-03-01T02:59:37.857Z,9.719165
2023-03-01T03:00:37.899Z,9.719010
2023-03-01T03:01:37.878Z,9.718890
2023-03-01T03:02:37.855Z,9.718890
2023-03-01T03:03:37.860Z,9.718890
2023-03-01T03:04:37.849Z,9.718890
2023-03-01T03:05:37.792Z,9.718890
2023-03-01T03:06:37.804Z,9.718890
2023-03-01T03:07:37.771Z,9.718890
2023-03-01T03:08:37.819Z,9.718890
2023-03-01T03:09:37.783Z,9.718890
2023-03-01T03:10:37.754Z,9.718814
2023-03-01T03:11:37.798Z,9.718961
2023-03-01T03:12:37.737Z,9.718962
2023-03-01T03:13:37.748Z,9.718904
2023-03-01T03:14:37.711Z,9.719053
2023-03-01T03:15:37.733Z,9.719118
2023-03-01T03:16:37.715Z,9.719172
2023-03-01T03:17:37.692Z,9.719158
2023-03-01T03:18:37.679Z,9.719083
2023-03-01T03:19:37.665Z,9.719128
2023-03-01T03:20:37.690Z,9.719017
2023-03-01T03:21:37.650Z,9.719028
2023-03-01T03:22:37.654Z,9.719066
2023-03-01T03:23:37.657Z,9.719098
2023-03-01T03:24:37.617Z,9.718983
2023-03-01T03:25:37.613Z,9.719124
2023-03-01T03:26:37.640Z,9.719156
2023-03-01T03:27:37.603Z,9.719111
2023-03-01T03:28:37.587Z,9.718983
2023-03-01T03:29:37.577Z,9.719085
2023-03-01T03:30:37.565Z,9.719147
2023-03-01T03:31:37.649Z,9.718995
2023-03-01T03:32:37.566Z,9.718963
2023-03-01T03:33:37.533Z,9.719122
2023-03-01T03:34:37.533Z,9.719133
2023-03-01T03:35:37.558Z,9.719254
2023-03-01T03:36:37.514Z,9.719262
2023-03-01T03:37:37.524Z,9.719116
2023-03-01T03:38:37.497Z,9.719072
2023-03-01T03:39:37.480Z,9.719228
2023-03-01T03:40:37.513Z,9.719204
2023-03-01T03:41:37.477Z,9.719411
2023-03-01T03:42:37.457Z,9.719242
2023-03-01T03:43:37.488Z,9.719279
2023-03-01T03:44:37.501Z,9.719013
2023-03-01T03:45:37.471Z,9.719333
2023-03-01T03:46:37.431Z,9.719234
2023-03-01T03:47:37.409Z,9.719180
2023-03-01T03:48:37.425Z,9.719301
2023-03-01T03:49:37.399Z,9.719454
2023-03-01T03:50:37.387Z,9.719120
2023-03-01T03:51:37.410Z,9.719199
2023-03-01T03:52:37.366Z,9.719104
2023-03-01T03:53:37.349Z,9.719008
2023-03-01T03:54:37.342Z,9.719149
2023-03-01T03:55:37.338Z,9.719151
2023-03-01T03:56:38.766Z,9.719168
2023-03-01T03:57:37.314Z,9.719213
2023-03-01T03:58:37.325Z,9.719288
2023-03-01T03:59:37.287Z,9.719139
2023-03-01T04:00:37.302Z,9.719243
2023-03-01T04:01:37.370Z,9.719160
2023-03-01T04:02:37.342Z,9.719197
2023-03-01T04:03:37.265Z,9.719135
2023-03-01T04:04:37.275Z,9.719070
2023-03-01T04:05:37.264Z,9.719105
2023-03-01T04:06:37.249Z,9.718993
2023-03-01T04:07:37.264Z,9.719003
2023-03-01T04:08:37.269Z,9.719094
2023-03-01T04:09:37.206Z,9.719069
2023-03-01T04:10:37.219Z,9.719123
2023-03-01T04:11:37.184Z,9.719265
2023-03-01T04:12:37.196Z,9.719223
2023-03-01T04:13:37.181Z,9.719259
2023-03-01T04:14:37.171Z,9.719193
2023-03-01T04:15:37.192Z,9.719135
2023-03-01T04:16:37.202Z,9.719117
2023-03-01T04:17:37.128Z,9.718960
2023-03-01T04:18:37.119Z,9.718896
2023-03-01T04:19:37.106Z,9.718611
2023-03-01T04:20:37.114Z,9.719002
2023-03-01T04:21:37.105Z,9.719054
2023-03-01T04:22:37.077Z,9.719145
2023-03-01T04:23:37.069Z,9.719129
2023-03-01T04:24:37.060Z,9.719174
2023-03-01T04:25:37.079Z,9.719213
2023-03-01T04:26:37.054Z,9.719102
2023-03-01T04:27:37.034Z,9.718910
2023-03-01T04:28:37.022Z,9.719041
2023-03-01T04:29:37.012Z,9.719193
2023-03-01T04:30:37.008Z,9.719215
2023-03-01T04:31:37.029Z,9.719275
2023-03-01T04:32:37.106Z,9.719346
2023-03-01T04:33:36.971Z,9.719439
2023-03-01T04:34:36.973Z,9.719399
2023-03-01T04:35:37.117Z,9.719620
2023-03-01T04:36:37.376Z,9.719140
2023-03-01T04:37:36.949Z,9.719342
2023-03-01T04:38:36.925Z,9.719334
2023-03-01T04:39:36.919Z,9.719320
2023-03-01T04:40:36.925Z,9.719360
2023-03-01T04:41:36.904Z,9.719214
2023-03-01T04:42:36.883Z,9.719474
2023-03-01T04:43:36.896Z,9.719757
2023-03-01T04:44:36.869Z,9.719679
2023-03-01T04:45:36.977Z,9.719436
2023-03-01T04:46:36.857Z,9.719322
2023-03-01T04:47:36.860Z,9.719317
2023-03-01T04:48:36.848Z,9.719212
2023-03-01T04:49:36.827Z,9.718964
2023-03-01T04:50:36.852Z,9.719129
2023-03-01T04:51:36.839Z,9.719259
2023-03-01T04:52:36.804Z,9.719238
2023-03-01T04:53:36.811Z,9.719327
2023-03-01T04:54:36.765Z,9.719351
2023-03-01T04:55:36.764Z,9.719398
2023-03-01T04:56:36.763Z,9.719523
2023-03-01T04:57:36.757Z,9.719298
2023-03-01T04:58:36.735Z,9.719085
2023-03-01T04:59:36.724Z,9.719275
2023-03-01T05:00:36.726Z,9.719317
2023-03-01T05:01:36.733Z,9.719367
2023-03-01T05:02:36.744Z,9.719257
2023-03-01T05:03:36.693Z,9.719195
2023-03-01T05:04:36.719Z,9.719140
2023-03-01T05:05:36.699Z,9.719172
2023-03-01T05:06:36.656Z,9.719321
2023-03-01T05:07:36.643Z,9.719249
2023-03-01T05:08:36.638Z,9.719249
2023-03-01T05:09:36.627Z,9.719185
2023-03-01T05:10:36.643Z,9.719244
2023-03-01T05:11:36.635Z,9.719270
2023-03-01T05:12:36.601Z,9.719133
2023-03-01T05:13:36.589Z,9.719163
2023-03-01T05:14:36.597Z,9.719162
2023-03-01T05:15:36.630Z,9.719211
2023-03-01T05:16:36.981Z,9.719047
2023-03-01T05:17:36.561Z,9.719162
2023-03-01T05:18:36.570Z,9.719137
2023-03-01T05:19:36.545Z,9.719239
2023-03-01T05:20:36.559Z,9.719447
2023-03-01T05:21:36.519Z,9.719314
2023-03-01T05:22:36.513Z,9.719338
2023-03-01T05:23:36.516Z,9.719244
2023-03-01T05:24:36.501Z,9.719231
2023-03-01T05:25:36.501Z,9.719252
2023-03-01T05:26:36.569Z,9.719323
2023-03-01T05:27:36.478Z,9.719309
2023-03-01T05:28:36.481Z,9.719176
2023-03-01T05:29:36.478Z,9.719070
2023-03-01T05:30:36.435Z,9.719213
2023-03-01T05:31:36.459Z,9.719266
2023-03-01T05:32:36.434Z,9.718989
2023-03-01T05:33:38.571Z,9.719086
2023-03-01T05:34:36.409Z,9.719491
2023-03-01T05:35:36.477Z,9.719297
2023-03-01T05:36:36.404Z,9.719121
2023-03-01T05:37:36.380Z,9.719015
2023-03-01T05:38:36.371Z,9.719354
2023-03-01T05:39:36.369Z,9.719337
2023-03-01T05:40:36.350Z,9.719355
2023-03-01T05:41:36.352Z,9.719644
2023-03-01T05:42:36.338Z,9.719696
2023-03-01T05:43:36.341Z,9.719641
2023-03-01T05:44:36.309Z,9.719662
2023-03-01T05:45:36.339Z,9.719610
2023-03-01T05:46:36.290Z,9.719688
2023-03-01T05:47:36.275Z,9.719640
2023-03-01T05:48:36.319Z,9.719591
2023-03-01T05:49:38.292Z,9.719635
2023-03-01T05:50:36.257Z,9.719690
2023-03-01T05:51:36.247Z,9.719017
2023-03-01T05:52:36.231Z,9.719011
2023-03-01T05:53:36.229Z,9.719185
2023-03-01T05:54:36.238Z,9.719323
2023-03-01T05:55:36.219Z,9.719241
2023-03-01T05:56:36.213Z,9.719345
2023-03-01T05:57:36.185Z,9.719324
2023-03-01T05:58:36.189Z,9.719247
2023-03-01T05:59:36.172Z,9.719326
2023-03-01T06:00:36.156Z,9.719244
2023-03-01T06:01:36.167Z,9.719316
2023-03-01T06:02:36.148Z,9.719352
2023-03-01T06:03:36.151Z,9.719323
2023-03-01T06:04:37.169Z,9.719362
2023-03-01T06:05:36.155Z,9.719320
2023-03-01T06:06:36.139Z,9.719319
2023-03-01T06:07:36.111Z,9.719358
2023-03-01T06:08:36.112Z,9.719398
2023-03-01T06:09:36.089Z,9.719368
2023-03-01T06:10:36.066Z,9.719339
2023-03-01T06:11:36.071Z,9.719353
2023-03-01T06:12:36.032Z,9.719349
2023-03-01T06:13:36.037Z,9.719391
2023-03-01T06:14:36.037Z,9.719394
2023-03-01T06:15:36.102Z,9.719417
2023-03-01T06:16:36.010Z,9.719335
2023-03-01T06:17:36.007Z,9.719321
2023-03-01T06:18:35.996Z,9.719377
2023-03-01T06:19:35.994Z,9.719369
2023-03-01T06:20:35.977Z,9.719268
2023-03-01T06:21:35.998Z,9.719359
2023-03-01T06:22:35.946Z,9.719374
2023-03-01T06:23:35.955Z,9.719244
2023-03-01T06:24:35.932Z,9.719265
2023-03-01T06:25:35.937Z,9.719218
2023-03-01T06:26:35.921Z,9.719263
2023-03-01T06:27:35.898Z,9.719211
2023-03-01T06:28:35.890Z,9.719246
2023-03-01T06:29:35.880Z,9.719153
2023-03-01T06:30:35.896Z,9.719122
2023-03-01T06:31:35.945Z,9.719153
2023-03-01T06:32:35.858Z,9.719077
2023-03-01T06:33:35.838Z,9.719202
2023-03-01T06:34:35.840Z,9.719301
2023-03-01T06:35:35.865Z,9.719361
2023-03-01T06:36:35.838Z,9.719222
2023-03-01T06:37:35.811Z,9.719290
2023-03-01T06:38:35.820Z,9.719287
2023-03-01T06:39:35.795Z,9.719358
2023-03-01T06:40:35.783Z,9.719273
2023-03-01T06:41:35.785Z,9.719247
2023-03-01T06:42:36.786Z,9.719107
2023-03-01T06:43:35.744Z,9.719252
2023-03-01T06:44:35.754Z,9.719182
2023-03-01T06:45:35.763Z,9.719119
2023-03-01T06:46:35.783Z,9.719224
2023-03-01T06:47:35.731Z,9.719173
2023-03-01T06:48:35.708Z,9.719404
2023-03-01T06:49:35.718Z,9.719279
2023-03-01T06:50:35.783Z,9.719101
2023-03-01T06:51:35.684Z,9.719026
2023-03-01T06:52:35.669Z,9.719210
2023-03-01T06:53:35.654Z,9.719311
2023-03-01T06:54:35.653Z,9.719298
2023-03-01T06:55:35.678Z,9.719401
2023-03-01T06:56:35.632Z,9.719394
2023-03-01T06:57:35.639Z,9.719250
2023-03-01T06:58:35.655Z,9.719275
2023-03-01T06:59:35.608Z,9.719175
2023-03-01T07:00:35.611Z,9.719216
2023-03-01T07:01:35.609Z,9.719342
2023-03-01T07:02:35.601Z,9.719313
2023-03-01T07:03:35.573Z,9.719241
2023-03-01T07:04:35.563Z,9.718794
2023-03-01T07:05:35.558Z,9.719114
2023-03-01T07:06:35.527Z,9.719168
2023-03-01T07:07:35.509Z,9.719142
2023-03-01T07:08:35.531Z,9.719150
2023-03-01T07:09:35.525Z,9.719157
2023-03-01T07:10:35.498Z,9.719097
2023-03-01T07:12:07.406Z,9.719175
2023-03-01T07:12:35.477Z,9.719270
2023-03-01T07:13:35.467Z,9.719247
2023-03-01T07:14:35.447Z,9.719371
2023-03-01T07:15:35.453Z,9.719340
2023-03-01T07:16:35.649Z,9.719276
2023-03-01T07:17:35.436Z,9.719324
2023-03-01T07:18:35.411Z,9.719354
2023-03-01T07:19:35.407Z,9.719381
2023-03-01T07:20:35.390Z,9.719246
2023-03-01T07:21:35.372Z,9.719203
2023-03-01T07:22:36.397Z,9.719156
2023-03-01T07:23:35.373Z,9.719229
2023-03-01T07:24:35.349Z,9.719234
2023-03-01T07:25:35.340Z,9.719261
2023-03-01T07:26:35.334Z,9.719222
2023-03-01T07:27:35.348Z,9.719155
2023-03-01T07:28:35.316Z,9.719073
2023-03-01T07:29:35.302Z,9.719248
2023-03-01T07:30:35.292Z,9.719191
2023-03-01T07:31:35.297Z,9.719438
2023-03-01T07:32:35.370Z,9.719234
2023-03-01T07:33:35.268Z,9.719333
2023-03-01T07:34:35.252Z,9.719311
2023-03-01T07:35:35.268Z,9.719184
2023-03-01T07:36:35.251Z,9.719259
2023-03-01T07:37:35.223Z,9.719299
2023-03-01T07:38:35.231Z,9.719099
2023-03-01T07:39:35.239Z,9.719150
2023-03-01T07:40:35.202Z,9.719152
2023-03-01T07:41:35.198Z,9.719215
2023-03-01T07:42:35.181Z,9.719076
2023-03-01T07:43:35.198Z,9.719141
2023-03-01T07:44:35.182Z,9.719132
2023-03-01T07:45:35.172Z,9.719141
2023-03-01T07:46:35.146Z,9.719172
2023-03-01T07:47:35.125Z,9.719204
2023-03-01T07:48:35.122Z,9.719079
2023-03-01T07:49:35.125Z,9.719191
2023-03-01T07:50:35.110Z,9.719104
2023-03-01T07:51:35.080Z,9.719146
2023-03-01T07:52:35.067Z,9.719149
2023-03-01T07:53:35.075Z,9.719144
2023-03-01T07:54:35.060Z,9.719332
2023-03-01T07:55:35.063Z,9.719213
2023-03-01T07:56:35.037Z,9.719174
2023-03-01T07:57:35.024Z,9.719246
2023-03-01T07:58:35.011Z,9.719079
2023-03-01T07:59:35.016Z,9.719202
2023-03-01T08:00:35.012Z,9.719074
2023-03-01T08:01:35.010Z,9.719227
2023-03-01T08:02:34.975Z,9.719147
2023-03-01T08:03:34.958Z,9.719228
2023-03-01T08:04:34.960Z,9.719332
2023-03-01T08:05:34.928Z,9.719333
2023-03-01T08:06:34.918Z,9.719189
2023-03-01T08:07:34.926Z,9.719284
2023-03-01T08:08:34.896Z,9.719551
2023-03-01T08:09:34.920Z,9.719370
2023-03-01T08:10:34.888Z,9.719185
2023-03-01T08:11:34.895Z,9.718321
2023-03-01T08:12:34.854Z,9.718854
2023-03-01T08:13:34.849Z,9.719484
2023-03-01T08:14:34.850Z,9.719206
2023-03-01T08:15:34.909Z,9.719105
2023-03-01T08:16:34.999Z,9.719179
2023-03-01T08:17:34.806Z,9.719093
2023-03-01T08:18:34.810Z,9.719295
2023-03-01T08:19:34.816Z,9.719202
2023-03-01T08:20:34.858Z,9.719087
2023-03-01T08:21:34.769Z,9.718683
2023-03-01T08:22:34.769Z,9.719394
2023-03-01T08:23:34.754Z,9.719616
2023-03-01T08:24:34.737Z,9.720031
2023-03-01T08:25:34.729Z,9.719367
2023-03-01T08:26:34.734Z,9.719324
2023-03-01T08:27:34.728Z,9.718801
2023-03-01T08:28:34.705Z,9.718810
2023-03-01T08:29:34.698Z,9.719196
2023-03-01T08:30:34.700Z,9.718870
2023-03-01T08:31:34.713Z,9.718891
2023-03-01T08:32:34.693Z,9.718767
2023-03-01T08:33:34.659Z,9.719034
2023-03-01T08:34:35.654Z,9.719143
2023-03-01T08:35:34.687Z,9.719059
2023-03-01T08:36:34.856Z,9.719138
2023-03-01T08:37:35.620Z,9.719213
2023-03-01T08:38:34.643Z,9.719178
2023-03-01T08:39:34.602Z,9.719116
2023-03-01T08:40:34.599Z,9.719150
2023-03-01T08:41:34.576Z,9.719045
2023-03-01T08:42:34.562Z,9.719098
2023-03-01T08:43:34.578Z,9.719137
2023-03-01T08:44:34.565Z,9.719099
2023-03-01T08:45:34.573Z,9.719098
2023-03-01T08:46:34.774Z,9.719197
2023-03-01T08:47:34.589Z,9.719211
2023-03-01T08:48:34.551Z,9.719183
2023-03-01T08:49:34.533Z,9.719042
2023-03-01T08:50:34.498Z,9.719113
2023-03-01T08:51:34.501Z,9.719160
2023-03-01T08:52:34.521Z,9.719227
2023-03-01T08:53:35.462Z,9.719245
2023-03-01T08:54:34.454Z,9.719225
2023-03-01T08:55:34.439Z,9.719192
2023-03-01T08:56:34.433Z,9.719257
2023-03-01T08:57:34.417Z,9.719141
2023-03-01T08:58:34.458Z,9.719149
2023-03-01T08:59:34.404Z,9.719090
2023-03-01T09:00:34.378Z,9.719145
2023-03-01T09:01:34.372Z,9.719254
2023-03-01T09:02:34.423Z,9.719197
2023-03-01T09:03:34.397Z,9.719185
2023-03-01T09:04:34.376Z,9.719165
2023-03-01T09:05:34.330Z,9.719095
2023-03-01T09:06:34.325Z,9.719149
2023-03-01T09:07:34.316Z,9.719185
2023-03-01T09:08:34.299Z,9.719220
2023-03-01T09:09:34.337Z,9.719163
2023-03-01T09:10:34.283Z,9.719172
2023-03-01T09:11:34.325Z,9.719172
2023-03-01T09:12:34.272Z,9.719058
2023-03-01T09:13:34.272Z,9.719174
2023-03-01T09:14:34.265Z,9.719062
2023-03-01T09:15:34.236Z,9.718029
2023-03-01T09:16:34.436Z,9.717876
2023-03-01T09:17:34.220Z,9.717876
2023-03-01T09:18:34.218Z,9.719325
2023-03-01T09:19:34.249Z,9.718962
2023-03-01T09:20:34.181Z,9.719346
2023-03-01T09:21:40.699Z,9.719007
2023-03-01T09:22:36.212Z,9.719200
2023-03-01T09:23:34.170Z,9.719605
2023-03-01T09:24:34.187Z,9.718934
2023-03-01T09:25:34.142Z,9.718896
2023-03-01T09:26:34.363Z,9.718650
2023-03-01T09:27:34.141Z,9.718856
2023-03-01T09:28:34.112Z,9.719118
2023-03-01T09:29:34.100Z,9.718820
2023-03-01T09:30:34.179Z,9.719592
2023-03-01T09:31:34.084Z,9.719230
2023-03-01T09:32:34.114Z,9.719094
2023-03-01T09:33:34.057Z,9.719534
2023-03-01T09:34:34.068Z,9.719170
2023-03-01T09:35:34.089Z,9.719311
2023-03-01T09:36:34.213Z,9.719486
2023-03-01T09:37:34.060Z,9.719548
2023-03-01T09:38:34.040Z,9.719486
2023-03-01T09:39:34.007Z,9.719262
2023-03-01T09:40:34.004Z,9.719571
2023-03-01T09:41:33.981Z,9.719598
2023-03-01T09:42:33.992Z,9.719580
2023-03-01T09:43:33.966Z,9.719589
2023-03-01T09:44:33.991Z,9.719748
2023-03-01T09:45:33.956Z,9.719509
2023-03-01T09:46:34.417Z,9.719401
2023-03-01T09:47:33.931Z,9.719498
2023-03-01T09:48:33.977Z,9.719390
2023-03-01T09:49:33.908Z,9.719490
2023-03-01T09:50:33.900Z,9.719348
2023-03-01T09:51:34.014Z,9.719352
2023-03-01T09:52:33.875Z,9.719304
2023-03-01T09:53:33.850Z,9.719472
2023-03-01T09:54:33.852Z,9.719472
2023-03-01T09:55:33.894Z,9.719442
2023-03-01T09:56:33.840Z,9.719340
2023-03-01T09:57:33.815Z,9.719310
2023-03-01T09:58:33.820Z,9.719200
2023-03-01T09:59:33.802Z,9.719194
2023-03-01T10:00:33.806Z,9.719239
2023-03-01T10:01:33.791Z,9.719128
2023-03-01T10:02:33.779Z,9.719070
2023-03-01T10:03:33.783Z,9.719195
2023-03-01T10:04:35.408Z,9.719128
2023-03-01T10:05:33.770Z,9.719259
2023-03-01T10:06:35.508Z,9.719310
2023-03-01T10:07:34.733Z,9.719328
2023-03-01T10:08:33.708Z,9.719192
2023-03-01T10:09:33.704Z,9.719337
2023-03-01T10:10:33.700Z,9.719310
2023-03-01T10:11:33.704Z,9.719133
2023-03-01T10:12:33.675Z,9.719079
2023-03-01T10:13:33.671Z,9.719144
2023-03-01T10:14:33.674Z,9.719275
2023-03-01T10:15:33.668Z,9.719306
2023-03-01T10:16:33.633Z,9.719281
2023-03-01T10:17:33.627Z,9.719483
2023-03-01T10:18:33.683Z,9.719349
2023-03-01T10:19:33.621Z,9.719327
2023-03-01T10:20:33.600Z,9.719352
2023-03-01T10:21:33.923Z,9.719352
2023-03-01T10:22:33.598Z,9.719230
2023-03-01T10:23:33.565Z,9.719170
2023-03-01T10:24:33.553Z,9.719178
2023-03-01T10:25:33.559Z,9.719063
2023-03-01T10:26:33.849Z,9.719153
2023-03-01T10:27:33.557Z,9.719070
2023-03-01T10:28:33.518Z,9.719071
2023-03-01T10:29:33.512Z,9.719077
2023-03-01T10:30:33.529Z,9.719228
2023-03-01T10:31:33.897Z,9.719032
2023-03-01T10:32:33.521Z,9.719193
2023-03-01T10:33:33.475Z,9.719352
2023-03-01T10:34:33.477Z,9.719365
2023-03-01T10:35:33.490Z,9.719253
2023-03-01T10:36:33.636Z,9.719211
2023-03-01T10:37:33.432Z,9.719244
2023-03-01T10:38:33.429Z,9.719260
2023-03-01T10:39:35.037Z,9.719257
2023-03-01T10:40:33.419Z,9.719237
2023-03-01T10:41:33.711Z,9.719129
2023-03-01T10:42:33.409Z,9.719101
2023-03-01T10:43:33.373Z,9.719086
2023-03-01T10:44:33.357Z,9.719105
2023-03-01T10:45:33.350Z,9.718996
2023-03-01T10:46:33.384Z,9.719151
2023-03-01T10:47:33.347Z,9.719119
2023-03-01T10:48:33.338Z,9.719208
2023-03-01T10:49:33.310Z,9.719217
2023-03-01T10:50:33.309Z,9.719092
2023-03-01T10:51:33.425Z,9.719141
2023-03-01T10:52:33.304Z,9.719192
2023-03-01T10:53:33.308Z,9.719276
2023-03-01T10:54:33.287Z,9.719228
2023-03-01T10:55:33.264Z,9.719202
2023-03-01T10:56:33.256Z,9.718932
2023-03-01T10:57:33.242Z,9.719256
2023-03-01T10:58:33.243Z,9.719113
2023-03-01T10:59:33.230Z,9.719015
2023-03-01T11:00:33.230Z,9.718966
2023-03-01T11:01:34.049Z,9.719161
2023-03-01T11:02:33.279Z,9.719248
2023-03-01T11:03:33.198Z,9.719120
2023-03-01T11:04:33.224Z,9.719084
2023-03-01T11:05:33.169Z,9.719232
2023-03-01T11:06:33.154Z,9.719328
2023-03-01T11:07:33.175Z,9.719363
2023-03-01T11:08:34.866Z,9.719148
2023-03-01T11:09:33.116Z,9.719166
2023-03-01T11:10:33.136Z,9.718966
2023-03-01T11:11:33.405Z,9.718929
2023-03-01T11:12:33.090Z,9.719149
2023-03-01T11:13:33.074Z,9.719117
2023-03-01T11:14:33.085Z,9.719275
2023-03-01T11:15:33.050Z,9.719164
2023-03-01T11:16:33.105Z,9.719377
2023-03-01T11:17:39.049Z,9.719303
2023-03-01T11:18:47.066Z,9.719343
2023-03-01T11:19:35.026Z,9.719318
2023-03-01T11:20:33.047Z,9.719116
2023-03-01T11:21:33.300Z,9.719185
2023-03-01T11:22:33.009Z,9.719137
2023-03-01T11:23:32.981Z,9.719217
2023-03-01T11:24:32.977Z,9.719389
2023-03-01T11:25:32.973Z,9.719314
2023-03-01T11:26:33.167Z,9.719415
2023-03-01T11:27:32.972Z,9.719340
2023-03-01T11:28:32.932Z,9.719417
2023-03-01T11:29:43.249Z,9.719279
2023-03-01T11:30:34.911Z,9.719081
2023-03-01T11:31:34.275Z,9.719126
2023-03-01T11:32:32.973Z,9.719014
2023-03-01T11:33:32.905Z,9.719258
2023-03-01T11:34:32.908Z,9.719464
2023-03-01T11:35:32.856Z,9.719290
2023-03-01T11:36:32.862Z,9.719109
2023-03-01T11:37:32.845Z,9.719181
2023-03-01T11:38:32.867Z,9.719166
2023-03-01T11:39:32.814Z,9.719284
2023-03-01T11:40:32.810Z,9.719273
2023-03-01T11:41:33.220Z,9.719145
2023-03-01T11:42:32.825Z,9.719363
2023-03-01T11:43:32.776Z,9.719374
2023-03-01T11:44:32.841Z,9.719459